Florence, Oregon
Current Conditions -  °F | °C
As of 5:35 PM on Saturday 20 Dec 2014 (Local Time) from KOTH Reporting Station
Overcast Overcast  
Wind Chill: 57°   Ceiling: 600
Heat Index: 57°   Visibility: 2.5mi
Dew Point: 57°   Wind: 13mph
Humidity: 100%   Direction: 220°SW
Pressure: 29.87"   Gusts: 22mph
Location:  43.97°N, 124.1°W
Report Text: KOTH 210135Z 22011G19KT 190V260 2 1/2SM OVC006 14/14 A2987 RMK AO1 RA BR P0002
Loading
Personal Weather Stations






























Interactive Weather Map New forecast layout! Learn more

10-Day Weather Forecast

Advertisements
Track Severe Weather on mobile